sensor_id;sensor_type;location;lat;lon;timestamp;P1;durP1;ratioP1;P2;durP2;ratioP2
76123;SDS011;65173;48.066;20.976;2023-05-10T00:02:07;2.30;;;1.38;;
76123;SDS011;65173;48.066;20.976;2023-05-10T00:05:10;1.17;;;1.05;;
76123;SDS011;65173;48.066;20.976;2023-05-10T00:08:12;1.92;;;1.17;;
76123;SDS011;65173;48.066;20.976;2023-05-10T00:11:15;1.90;;;1.02;;
76123;SDS011;65173;48.066;20.976;2023-05-10T00:14:18;2.10;;;1.70;;
76123;SDS011;65173;48.066;20.976;2023-05-10T00:17:21;1.48;;;1.08;;
76123;SDS011;65173;48.066;20.976;2023-05-10T00:20:24;1.30;;;1.10;;
76123;SDS011;65173;48.066;20.976;2023-05-10T00:23:27;1.30;;;0.90;;
76123;SDS011;65173;48.066;20.976;2023-05-10T00:26:29;1.25;;;0.73;;
76123;SDS011;65173;48.066;20.976;2023-05-10T00:29:32;1.02;;;0.88;;
76123;SDS011;65173;48.066;20.976;2023-05-10T00:32:36;3.17;;;1.52;;
76123;SDS011;65173;48.066;20.976;2023-05-10T00:35:39;2.60;;;1.08;;
76123;SDS011;65173;48.066;20.976;2023-05-10T00:38:43;0.60;;;0.52;;
76123;SDS011;65173;48.066;20.976;2023-05-10T00:41:46;1.10;;;0.70;;
76123;SDS011;65173;48.066;20.976;2023-05-10T00:44:50;1.43;;;1.33;;
76123;SDS011;65173;48.066;20.976;2023-05-10T00:47:53;1.30;;;1.10;;
76123;SDS011;65173;48.066;20.976;2023-05-10T00:50:58;2.47;;;1.05;;
76123;SDS011;65173;48.066;20.976;2023-05-10T00:54:01;1.10;;;1.00;;
76123;SDS011;65173;48.066;20.976;2023-05-10T00:57:04;1.27;;;1.05;;
76123;SDS011;65173;48.066;20.976;2023-05-10T01:00:07;1.80;;;1.42;;
76123;SDS011;65173;48.066;20.976;2023-05-10T01:03:10;1.88;;;1.27;;
76123;SDS011;65173;48.066;20.976;2023-05-10T01:06:13;1.38;;;1.10;;
76123;SDS011;65173;48.066;20.976;2023-05-10T01:09:16;1.73;;;1.30;;
76123;SDS011;65173;48.066;20.976;2023-05-10T01:12:20;1.45;;;1.33;;
76123;SDS011;65173;48.066;20.976;2023-05-10T01:15:23;4.27;;;1.50;;
76123;SDS011;65173;48.066;20.976;2023-05-10T01:18:26;1.40;;;1.05;;
76123;SDS011;65173;48.066;20.976;2023-05-10T01:21:37;1.50;;;1.10;;
76123;SDS011;65173;48.066;20.976;2023-05-10T01:35:00;4.22;;;0.90;;
76123;SDS011;65173;48.066;20.976;2023-05-10T01:41:17;3.20;;;0.80;;
76123;SDS011;65173;48.066;20.976;2023-05-10T01:48:08;0.77;;;0.70;;
76123;SDS011;65173;48.066;20.976;2023-05-10T01:51:14;2.35;;;1.08;;
76123;SDS011;65173;48.066;20.976;2023-05-10T01:54:22;1.35;;;0.85;;
76123;SDS011;65173;48.066;20.976;2023-05-10T01:57:27;2.07;;;1.37;;
76123;SDS011;65173;48.066;20.976;2023-05-10T02:00:35;2.58;;;1.52;;
76123;SDS011;65173;48.066;20.976;2023-05-10T02:03:42;1.23;;;1.13;;
76123;SDS011;65173;48.066;20.976;2023-05-10T02:06:45;1.15;;;0.80;;
76123;SDS011;65173;48.066;20.976;2023-05-10T02:09:50;1.15;;;0.85;;
76123;SDS011;65173;48.066;20.976;2023-05-10T02:12:53;1.25;;;1.00;;
76123;SDS011;65173;48.066;20.976;2023-05-10T02:15:57;2.05;;;0.98;;
76123;SDS011;65173;48.066;20.976;2023-05-10T02:19:02;1.13;;;0.90;;
76123;SDS011;65173;48.066;20.976;2023-05-10T02:22:06;2.53;;;0.80;;
76123;SDS011;65173;48.066;20.976;2023-05-10T02:25:11;3.10;;;1.48;;
76123;SDS011;65173;48.066;20.976;2023-05-10T02:28:16;1.63;;;0.87;;
76123;SDS011;65173;48.066;20.976;2023-05-10T02:31:20;2.22;;;1.10;;
76123;SDS011;65173;48.066;20.976;2023-05-10T02:34:25;1.25;;;0.73;;
76123;SDS011;65173;48.066;20.976;2023-05-10T02:37:29;2.28;;;1.95;;
76123;SDS011;65173;48.066;20.976;2023-05-10T02:40:33;2.05;;;0.93;;
76123;SDS011;65173;48.066;20.976;2023-05-10T02:43:39;1.23;;;1.13;;
76123;SDS011;65173;48.066;20.976;2023-05-10T02:46:42;4.35;;;1.30;;
76123;SDS011;65173;48.066;20.976;2023-05-10T02:49:46;0.70;;;0.70;;
76123;SDS011;65173;48.066;20.976;2023-05-10T02:52:50;1.23;;;0.93;;
76123;SDS011;65173;48.066;20.976;2023-05-10T02:55:54;1.17;;;1.08;;
76123;SDS011;65173;48.066;20.976;2023-05-10T02:59:01;3.93;;;1.73;;
76123;SDS011;65173;48.066;20.976;2023-05-10T03:02:04;3.03;;;1.55;;
76123;SDS011;65173;48.066;20.976;2023-05-10T03:05:07;2.00;;;0.90;;
76123;SDS011;65173;48.066;20.976;2023-05-10T03:08:10;1.38;;;0.95;;
76123;SDS011;65173;48.066;20.976;2023-05-10T03:15:00;2.88;;;1.30;;
76123;SDS011;65173;48.066;20.976;2023-05-10T03:18:17;0.85;;;0.73;;
76123;SDS011;65173;48.066;20.976;2023-05-10T03:21:25;2.40;;;1.13;;
76123;SDS011;65173;48.066;20.976;2023-05-10T03:24:31;2.50;;;0.77;;
76123;SDS011;65173;48.066;20.976;2023-05-10T03:27:37;1.75;;;1.38;;
76123;SDS011;65173;48.066;20.976;2023-05-10T03:30:43;2.20;;;0.80;;
76123;SDS011;65173;48.066;20.976;2023-05-10T03:33:47;4.60;;;1.02;;
76123;SDS011;65173;48.066;20.976;2023-05-10T03:36:57;2.08;;;0.80;;
76123;SDS011;65173;48.066;20.976;2023-05-10T03:40:03;1.48;;;0.82;;
76123;SDS011;65173;48.066;20.976;2023-05-10T03:43:08;3.05;;;0.93;;
76123;SDS011;65173;48.066;20.976;2023-05-10T03:46:11;3.78;;;1.48;;
76123;SDS011;65173;48.066;20.976;2023-05-10T03:49:14;2.67;;;0.85;;
76123;SDS011;65173;48.066;20.976;2023-05-10T03:52:17;4.63;;;1.43;;
76123;SDS011;65173;48.066;20.976;2023-05-10T03:55:20;1.55;;;1.27;;
76123;SDS011;65173;48.066;20.976;2023-05-10T03:58:25;1.83;;;0.63;;
76123;SDS011;65173;48.066;20.976;2023-05-10T04:01:27;1.50;;;1.00;;
76123;SDS011;65173;48.066;20.976;2023-05-10T04:04:30;1.75;;;1.23;;
76123;SDS011;65173;48.066;20.976;2023-05-10T04:07:33;1.17;;;0.95;;
76123;SDS011;65173;48.066;20.976;2023-05-10T04:10:36;1.50;;;1.30;;
76123;SDS011;65173;48.066;20.976;2023-05-10T04:13:39;2.13;;;1.15;;
76123;SDS011;65173;48.066;20.976;2023-05-10T04:16:41;2.33;;;1.17;;
76123;SDS011;65173;48.066;20.976;2023-05-10T04:19:44;2.78;;;1.02;;
76123;SDS011;65173;48.066;20.976;2023-05-10T04:22:47;1.70;;;1.07;;
76123;SDS011;65173;48.066;20.976;2023-05-10T04:25:50;3.95;;;1.20;;
76123;SDS011;65173;48.066;20.976;2023-05-10T04:28:52;2.50;;;1.20;;
76123;SDS011;65173;48.066;20.976;2023-05-10T04:31:55;6.57;;;1.20;;
76123;SDS011;65173;48.066;20.976;2023-05-10T04:34:58;1.10;;;1.00;;
76123;SDS011;65173;48.066;20.976;2023-05-10T04:38:01;2.10;;;1.25;;
76123;SDS011;65173;48.066;20.976;2023-05-10T04:41:07;3.05;;;1.30;;
76123;SDS011;65173;48.066;20.976;2023-05-10T04:44:11;1.80;;;1.08;;
76123;SDS011;65173;48.066;20.976;2023-05-10T04:47:13;2.53;;;1.55;;
76123;SDS011;65173;48.066;20.976;2023-05-10T04:50:16;1.40;;;1.30;;
76123;SDS011;65173;48.066;20.976;2023-05-10T04:53:20;1.60;;;0.97;;
76123;SDS011;65173;48.066;20.976;2023-05-10T04:56:23;1.05;;;0.95;;
76123;SDS011;65173;48.066;20.976;2023-05-10T04:59:25;1.30;;;1.10;;
76123;SDS011;65173;48.066;20.976;2023-05-10T05:02:28;2.80;;;0.90;;
76123;SDS011;65173;48.066;20.976;2023-05-10T05:05:31;1.98;;;1.27;;
76123;SDS011;65173;48.066;20.976;2023-05-10T05:08:33;1.88;;;1.55;;
76123;SDS011;65173;48.066;20.976;2023-05-10T05:11:36;1.20;;;0.90;;
76123;SDS011;65173;48.066;20.976;2023-05-10T05:14:40;3.42;;;1.58;;
76123;SDS011;65173;48.066;20.976;2023-05-10T05:17:43;2.22;;;1.40;;
76123;SDS011;65173;48.066;20.976;2023-05-10T05:20:46;1.65;;;1.15;;
76123;SDS011;65173;48.066;20.976;2023-05-10T05:23:48;4.53;;;1.57;;
76123;SDS011;65173;48.066;20.976;2023-05-10T05:26:51;2.08;;;1.00;;
76123;SDS011;65173;48.066;20.976;2023-05-10T05:29:54;3.05;;;1.33;;
76123;SDS011;65173;48.066;20.976;2023-05-10T05:32:57;6.30;;;1.40;;
76123;SDS011;65173;48.066;20.976;2023-05-10T05:36:00;2.78;;;0.98;;
76123;SDS011;65173;48.066;20.976;2023-05-10T05:39:04;2.03;;;1.38;;
76123;SDS011;65173;48.066;20.976;2023-05-10T05:42:07;2.13;;;1.55;;
76123;SDS011;65173;48.066;20.976;2023-05-10T05:45:10;1.50;;;1.27;;
76123;SDS011;65173;48.066;20.976;2023-05-10T05:48:15;2.20;;;1.20;;
76123;SDS011;65173;48.066;20.976;2023-05-10T05:51:18;1.85;;;1.30;;
76123;SDS011;65173;48.066;20.976;2023-05-10T05:54:20;2.17;;;1.63;;
76123;SDS011;65173;48.066;20.976;2023-05-10T05:57:23;2.95;;;2.10;;
76123;SDS011;65173;48.066;20.976;2023-05-10T06:00:26;2.83;;;1.40;;
76123;SDS011;65173;48.066;20.976;2023-05-10T06:03:29;2.27;;;1.60;;
76123;SDS011;65173;48.066;20.976;2023-05-10T06:06:31;2.85;;;1.45;;
76123;SDS011;65173;48.066;20.976;2023-05-10T06:09:34;3.88;;;1.67;;
76123;SDS011;65173;48.066;20.976;2023-05-10T06:12:37;1.65;;;1.52;;
76123;SDS011;65173;48.066;20.976;2023-05-10T06:15:39;3.63;;;1.20;;
76123;SDS011;65173;48.066;20.976;2023-05-10T06:18:42;3.65;;;1.67;;
76123;SDS011;65173;48.066;20.976;2023-05-10T06:21:45;2.55;;;1.42;;
76123;SDS011;65173;48.066;20.976;2023-05-10T06:24:47;1.20;;;1.10;;
76123;SDS011;65173;48.066;20.976;2023-05-10T06:27:50;1.65;;;1.30;;
76123;SDS011;65173;48.066;20.976;2023-05-10T06:30:54;1.58;;;1.40;;
76123;SDS011;65173;48.066;20.976;2023-05-10T06:33:57;4.00;;;1.73;;
76123;SDS011;65173;48.066;20.976;2023-05-10T06:37:00;1.80;;;1.17;;
76123;SDS011;65173;48.066;20.976;2023-05-10T06:40:02;2.47;;;1.42;;
76123;SDS011;65173;48.066;20.976;2023-05-10T06:43:06;2.60;;;1.88;;
76123;SDS011;65173;48.066;20.976;2023-05-10T06:46:09;1.45;;;1.33;;
76123;SDS011;65173;48.066;20.976;2023-05-10T06:49:12;2.95;;;1.33;;
76123;SDS011;65173;48.066;20.976;2023-05-10T06:52:15;2.17;;;1.65;;
76123;SDS011;65173;48.066;20.976;2023-05-10T06:55:37;2.33;;;2.13;;
76123;SDS011;65173;48.066;20.976;2023-05-10T06:58:40;2.78;;;1.83;;
76123;SDS011;65173;48.066;20.976;2023-05-10T07:01:43;4.10;;;2.53;;
76123;SDS011;65173;48.066;20.976;2023-05-10T07:04:46;1.97;;;1.60;;
76123;SDS011;65173;48.066;20.976;2023-05-10T07:07:49;2.30;;;1.98;;
76123;SDS011;65173;48.066;20.976;2023-05-10T07:10:52;3.50;;;1.40;;
76123;SDS011;65173;48.066;20.976;2023-05-10T07:13:55;2.65;;;1.45;;
76123;SDS011;65173;48.066;20.976;2023-05-10T07:16:58;3.10;;;2.08;;
76123;SDS011;65173;48.066;20.976;2023-05-10T07:20:00;1.67;;;1.40;;
76123;SDS011;65173;48.066;20.976;2023-05-10T07:23:03;2.72;;;1.30;;
76123;SDS011;65173;48.066;20.976;2023-05-10T07:26:06;2.77;;;1.70;;
76123;SDS011;65173;48.066;20.976;2023-05-10T07:29:09;1.83;;;1.50;;
76123;SDS011;65173;48.066;20.976;2023-05-10T07:32:12;2.50;;;1.52;;
76123;SDS011;65173;48.066;20.976;2023-05-10T07:35:14;2.67;;;1.67;;
76123;SDS011;65173;48.066;20.976;2023-05-10T07:38:17;2.13;;;1.60;;
76123;SDS011;65173;48.066;20.976;2023-05-10T07:41:20;4.53;;;1.75;;
76123;SDS011;65173;48.066;20.976;2023-05-10T07:44:23;1.45;;;1.35;;
76123;SDS011;65173;48.066;20.976;2023-05-10T07:47:26;1.75;;;1.65;;
76123;SDS011;65173;48.066;20.976;2023-05-10T07:50:29;1.58;;;1.40;;
76123;SDS011;65173;48.066;20.976;2023-05-10T07:53:31;2.65;;;1.13;;
76123;SDS011;65173;48.066;20.976;2023-05-10T07:56:34;1.60;;;1.50;;
76123;SDS011;65173;48.066;20.976;2023-05-10T07:59:37;1.83;;;1.52;;
76123;SDS011;65173;48.066;20.976;2023-05-10T08:02:40;2.53;;;1.70;;
76123;SDS011;65173;48.066;20.976;2023-05-10T08:05:43;1.73;;;1.50;;
76123;SDS011;65173;48.066;20.976;2023-05-10T08:08:45;1.50;;;1.40;;
76123;SDS011;65173;48.066;20.976;2023-05-10T08:11:51;1.05;;;0.98;;
76123;SDS011;65173;48.066;20.976;2023-05-10T08:14:54;2.10;;;1.90;;
76123;SDS011;65173;48.066;20.976;2023-05-10T08:17:56;1.95;;;1.35;;
76123;SDS011;65173;48.066;20.976;2023-05-10T08:20:59;2.92;;;1.20;;
76123;SDS011;65173;48.066;20.976;2023-05-10T08:24:01;2.10;;;1.58;;
76123;SDS011;65173;48.066;20.976;2023-05-10T08:27:05;2.70;;;1.63;;
76123;SDS011;65173;48.066;20.976;2023-05-10T08:30:07;2.63;;;1.67;;
76123;SDS011;65173;48.066;20.976;2023-05-10T08:33:10;1.75;;;1.38;;
76123;SDS011;65173;48.066;20.976;2023-05-10T08:36:13;2.47;;;1.70;;
76123;SDS011;65173;48.066;20.976;2023-05-10T08:39:22;1.77;;;1.50;;
76123;SDS011;65173;48.066;20.976;2023-05-10T08:42:32;1.83;;;1.48;;
76123;SDS011;65173;48.066;20.976;2023-05-10T08:45:41;3.47;;;1.83;;
76123;SDS011;65173;48.066;20.976;2023-05-10T08:48:45;2.15;;;2.00;;
76123;SDS011;65173;48.066;20.976;2023-05-10T08:51:49;1.85;;;1.00;;
76123;SDS011;65173;48.066;20.976;2023-05-10T08:54:57;3.63;;;1.55;;
76123;SDS011;65173;48.066;20.976;2023-05-10T08:58:00;2.20;;;1.63;;
76123;SDS011;65173;48.066;20.976;2023-05-10T09:01:03;1.42;;;1.33;;
76123;SDS011;65173;48.066;20.976;2023-05-10T09:04:07;1.10;;;1.00;;
76123;SDS011;65173;48.066;20.976;2023-05-10T09:07:09;2.83;;;1.27;;
76123;SDS011;65173;48.066;20.976;2023-05-10T09:10:12;1.73;;;1.25;;
76123;SDS011;65173;48.066;20.976;2023-05-10T09:13:16;2.65;;;1.48;;
76123;SDS011;65173;48.066;20.976;2023-05-10T09:16:19;2.67;;;1.05;;
76123;SDS011;65173;48.066;20.976;2023-05-10T09:19:23;1.20;;;1.02;;
76123;SDS011;65173;48.066;20.976;2023-05-10T09:22:26;2.03;;;1.13;;
76123;SDS011;65173;48.066;20.976;2023-05-10T09:25:29;1.13;;;0.90;;
76123;SDS011;65173;48.066;20.976;2023-05-10T09:28:32;2.10;;;0.87;;
76123;SDS011;65173;48.066;20.976;2023-05-10T09:31:53;0.80;;;0.60;;
76123;SDS011;65173;48.066;20.976;2023-05-10T09:34:58;2.08;;;0.93;;
76123;SDS011;65173;48.066;20.976;2023-05-10T09:38:08;0.80;;;0.60;;
76123;SDS011;65173;48.066;20.976;2023-05-10T09:41:19;0.57;;;0.57;;
76123;SDS011;65173;48.066;20.976;2023-05-10T09:44:25;0.77;;;0.57;;
76123;SDS011;65173;48.066;20.976;2023-05-10T09:47:28;0.70;;;0.70;;
76123;SDS011;65173;48.066;20.976;2023-05-10T09:50:31;1.48;;;0.93;;
76123;SDS011;65173;48.066;20.976;2023-05-10T09:53:34;0.70;;;0.63;;
76123;SDS011;65173;48.066;20.976;2023-05-10T09:56:36;1.30;;;1.17;;
76123;SDS011;65173;48.066;20.976;2023-05-10T09:59:42;1.10;;;0.70;;
76123;SDS011;65173;48.066;20.976;2023-05-10T10:02:55;0.65;;;0.65;;
76123;SDS011;65173;48.066;20.976;2023-05-10T10:05:59;0.47;;;0.47;;
76123;SDS011;65173;48.066;20.976;2023-05-10T10:09:02;1.07;;;0.60;;
76123;SDS011;65173;48.066;20.976;2023-05-10T10:12:05;2.58;;;1.20;;
76123;SDS011;65173;48.066;20.976;2023-05-10T10:15:08;3.38;;;2.10;;
76123;SDS011;65173;48.066;20.976;2023-05-10T10:18:14;1.77;;;1.20;;
76123;SDS011;65173;48.066;20.976;2023-05-10T10:21:19;0.80;;;0.65;;
76123;SDS011;65173;48.066;20.976;2023-05-10T10:24:22;1.10;;;0.65;;
76123;SDS011;65173;48.066;20.976;2023-05-10T10:27:28;1.50;;;0.70;;
76123;SDS011;65173;48.066;20.976;2023-05-10T10:30:44;1.37;;;0.60;;
76123;SDS011;65173;48.066;20.976;2023-05-10T10:34:00;1.70;;;0.70;;
76123;SDS011;65173;48.066;20.976;2023-05-10T10:37:07;1.05;;;0.95;;
76123;SDS011;65173;48.066;20.976;2023-05-10T10:40:23;0.73;;;0.70;;
76123;SDS011;65173;48.066;20.976;2023-05-10T10:43:28;2.10;;;0.88;;
76123;SDS011;65173;48.066;20.976;2023-05-10T10:46:30;1.88;;;0.88;;
76123;SDS011;65173;48.066;20.976;2023-05-10T10:52:42;1.13;;;1.02;;
76123;SDS011;65173;48.066;20.976;2023-05-10T10:55:46;2.03;;;1.20;;
76123;SDS011;65173;48.066;20.976;2023-05-10T10:58:50;1.17;;;1.08;;
76123;SDS011;65173;48.066;20.976;2023-05-10T11:01:53;0.97;;;0.87;;
76123;SDS011;65173;48.066;20.976;2023-05-10T11:04:56;1.30;;;1.30;;
76123;SDS011;65173;48.066;20.976;2023-05-10T11:07:59;1.33;;;1.00;;
76123;SDS011;65173;48.066;20.976;2023-05-10T11:11:03;1.03;;;0.93;;
76123;SDS011;65173;48.066;20.976;2023-05-10T11:14:10;1.05;;;0.75;;
76123;SDS011;65173;48.066;20.976;2023-05-10T11:17:23;2.10;;;1.20;;
76123;SDS011;65173;48.066;20.976;2023-05-10T11:20:27;0.88;;;0.82;;
76123;SDS011;65173;48.066;20.976;2023-05-10T11:23:48;1.38;;;1.27;;
76123;SDS011;65173;48.066;20.976;2023-05-10T11:26:58;1.27;;;1.17;;
76123;SDS011;65173;48.066;20.976;2023-05-10T11:30:00;3.78;;;0.98;;
76123;SDS011;65173;48.066;20.976;2023-05-10T11:33:08;1.10;;;1.00;;
76123;SDS011;65173;48.066;20.976;2023-05-10T11:36:15;0.90;;;0.90;;
76123;SDS011;65173;48.066;20.976;2023-05-10T11:39:20;0.95;;;0.95;;
76123;SDS011;65173;48.066;20.976;2023-05-10T11:42:23;0.93;;;0.93;;
76123;SDS011;65173;48.066;20.976;2023-05-10T11:45:26;0.77;;;0.73;;
76123;SDS011;65173;48.066;20.976;2023-05-10T11:48:31;1.33;;;1.10;;
76123;SDS011;65173;48.066;20.976;2023-05-10T11:51:34;1.25;;;1.23;;
76123;SDS011;65173;48.066;20.976;2023-05-10T11:54:44;1.20;;;1.10;;
76123;SDS011;65173;48.066;20.976;2023-05-10T11:57:54;0.93;;;0.93;;
76123;SDS011;65173;48.066;20.976;2023-05-10T12:00:57;1.40;;;1.30;;
76123;SDS011;65173;48.066;20.976;2023-05-10T12:04:01;0.90;;;0.80;;
76123;SDS011;65173;48.066;20.976;2023-05-10T12:07:04;2.15;;;0.98;;
76123;SDS011;65173;48.066;20.976;2023-05-10T12:13:17;1.10;;;1.00;;
76123;SDS011;65173;48.066;20.976;2023-05-10T12:16:25;0.90;;;0.90;;
76123;SDS011;65173;48.066;20.976;2023-05-10T12:19:37;0.82;;;0.82;;
76123;SDS011;65173;48.066;20.976;2023-05-10T12:22:40;1.42;;;1.08;;
76123;SDS011;65173;48.066;20.976;2023-05-10T12:25:46;1.25;;;0.90;;
76123;SDS011;65173;48.066;20.976;2023-05-10T12:28:49;0.88;;;0.80;;
76123;SDS011;65173;48.066;20.976;2023-05-10T12:31:55;1.40;;;1.20;;
76123;SDS011;65173;48.066;20.976;2023-05-10T12:34:59;1.30;;;0.70;;
76123;SDS011;65173;48.066;20.976;2023-05-10T12:38:01;1.45;;;1.10;;
76123;SDS011;65173;48.066;20.976;2023-05-10T12:41:33;1.67;;;1.23;;
76123;SDS011;65173;48.066;20.976;2023-05-10T12:44:35;0.87;;;0.70;;
76123;SDS011;65173;48.066;20.976;2023-05-10T12:47:38;0.82;;;0.55;;
76123;SDS011;65173;48.066;20.976;2023-05-10T12:50:44;1.00;;;0.95;;
76123;SDS011;65173;48.066;20.976;2023-05-10T12:53:46;1.80;;;0.90;;
76123;SDS011;65173;48.066;20.976;2023-05-10T12:56:50;2.17;;;0.90;;
76123;SDS011;65173;48.066;20.976;2023-05-10T12:59:53;1.23;;;1.13;;
76123;SDS011;65173;48.066;20.976;2023-05-10T13:02:56;1.98;;;1.08;;
76123;SDS011;65173;48.066;20.976;2023-05-10T13:05:59;2.17;;;1.00;;
76123;SDS011;65173;48.066;20.976;2023-05-10T13:09:02;1.20;;;1.10;;
76123;SDS011;65173;48.066;20.976;2023-05-10T13:12:05;0.63;;;0.63;;
76123;SDS011;65173;48.066;20.976;2023-05-10T13:15:11;1.20;;;1.10;;
76123;SDS011;65173;48.066;20.976;2023-05-10T13:18:13;1.30;;;1.20;;
76123;SDS011;65173;48.066;20.976;2023-05-10T13:21:16;1.98;;;1.42;;
76123;SDS011;65173;48.066;20.976;2023-05-10T13:24:19;1.42;;;1.10;;
76123;SDS011;65173;48.066;20.976;2023-05-10T13:27:21;1.00;;;0.68;;
76123;SDS011;65173;48.066;20.976;2023-05-10T13:30:24;0.85;;;0.70;;
76123;SDS011;65173;48.066;20.976;2023-05-10T13:33:27;1.90;;;0.75;;
76123;SDS011;65173;48.066;20.976;2023-05-10T13:36:30;1.63;;;1.13;;
76123;SDS011;65173;48.066;20.976;2023-05-10T13:39:33;1.00;;;0.90;;
76123;SDS011;65173;48.066;20.976;2023-05-10T13:42:36;0.90;;;0.68;;
76123;SDS011;65173;48.066;20.976;2023-05-10T13:45:39;1.00;;;0.83;;
76123;SDS011;65173;48.066;20.976;2023-05-10T13:48:42;1.40;;;1.17;;
76123;SDS011;65173;48.066;20.976;2023-05-10T13:51:44;1.60;;;1.00;;
76123;SDS011;65173;48.066;20.976;2023-05-10T13:54:47;1.00;;;0.90;;
76123;SDS011;65173;48.066;20.976;2023-05-10T13:57:50;0.70;;;0.70;;
76123;SDS011;65173;48.066;20.976;2023-05-10T14:00:52;0.73;;;0.73;;
76123;SDS011;65173;48.066;20.976;2023-05-10T14:03:55;1.02;;;0.80;;
76123;SDS011;65173;48.066;20.976;2023-05-10T14:06:58;2.23;;;0.77;;
76123;SDS011;65173;48.066;20.976;2023-05-10T14:10:00;1.45;;;0.90;;
76123;SDS011;65173;48.066;20.976;2023-05-10T14:13:03;4.60;;;1.10;;
76123;SDS011;65173;48.066;20.976;2023-05-10T14:16:05;1.30;;;0.70;;
76123;SDS011;65173;48.066;20.976;2023-05-10T14:19:08;1.90;;;1.10;;
76123;SDS011;65173;48.066;20.976;2023-05-10T14:22:11;6.20;;;2.85;;
76123;SDS011;65173;48.066;20.976;2023-05-10T14:25:14;6.13;;;3.45;;
76123;SDS011;65173;48.066;20.976;2023-05-10T14:28:17;5.07;;;2.83;;
76123;SDS011;65173;48.066;20.976;2023-05-10T14:31:20;2.05;;;1.65;;
76123;SDS011;65173;48.066;20.976;2023-05-10T14:34:23;1.30;;;1.08;;
76123;SDS011;65173;48.066;20.976;2023-05-10T14:37:26;5.27;;;2.33;;
76123;SDS011;65173;48.066;20.976;2023-05-10T14:40:29;2.20;;;1.40;;
76123;SDS011;65173;48.066;20.976;2023-05-10T14:43:32;2.47;;;1.50;;
76123;SDS011;65173;48.066;20.976;2023-05-10T14:46:35;1.10;;;0.90;;
76123;SDS011;65173;48.066;20.976;2023-05-10T14:49:38;0.60;;;0.60;;
76123;SDS011;65173;48.066;20.976;2023-05-10T14:52:41;4.43;;;2.90;;
76123;SDS011;65173;48.066;20.976;2023-05-10T14:55:43;2.63;;;2.38;;
76123;SDS011;65173;48.066;20.976;2023-05-10T14:58:46;2.22;;;2.03;;
76123;SDS011;65173;48.066;20.976;2023-05-10T15:01:49;0.95;;;0.73;;
76123;SDS011;65173;48.066;20.976;2023-05-10T15:04:52;3.13;;;1.23;;
76123;SDS011;65173;48.066;20.976;2023-05-10T15:08:00;2.13;;;1.40;;
76123;SDS011;65173;48.066;20.976;2023-05-10T15:11:02;1.90;;;1.75;;
76123;SDS011;65173;48.066;20.976;2023-05-10T15:14:05;1.67;;;1.27;;
76123;SDS011;65173;48.066;20.976;2023-05-10T15:17:08;3.57;;;1.30;;
76123;SDS011;65173;48.066;20.976;2023-05-10T15:20:11;0.93;;;0.70;;
76123;SDS011;65173;48.066;20.976;2023-05-10T15:23:13;1.80;;;1.40;;
76123;SDS011;65173;48.066;20.976;2023-05-10T15:26:16;1.10;;;1.00;;
76123;SDS011;65173;48.066;20.976;2023-05-10T15:29:19;2.72;;;1.85;;
76123;SDS011;65173;48.066;20.976;2023-05-10T15:32:22;3.95;;;2.75;;
76123;SDS011;65173;48.066;20.976;2023-05-10T15:35:25;5.68;;;3.45;;
76123;SDS011;65173;48.066;20.976;2023-05-10T15:38:28;6.90;;;3.97;;
76123;SDS011;65173;48.066;20.976;2023-05-10T15:41:30;4.40;;;3.22;;
76123;SDS011;65173;48.066;20.976;2023-05-10T15:44:33;1.17;;;0.65;;
76123;SDS011;65173;48.066;20.976;2023-05-10T15:47:37;3.00;;;1.27;;
76123;SDS011;65173;48.066;20.976;2023-05-10T15:50:41;3.28;;;0.70;;
76123;SDS011;65173;48.066;20.976;2023-05-10T15:53:44;1.25;;;0.88;;
76123;SDS011;65173;48.066;20.976;2023-05-10T15:57:06;0.40;;;0.40;;
76123;SDS011;65173;48.066;20.976;2023-05-10T16:00:10;1.92;;;1.30;;
76123;SDS011;65173;48.066;20.976;2023-05-10T16:03:14;1.30;;;0.77;;
76123;SDS011;65173;48.066;20.976;2023-05-10T16:06:17;1.15;;;1.08;;
76123;SDS011;65173;48.066;20.976;2023-05-10T16:09:20;1.50;;;1.10;;
76123;SDS011;65173;48.066;20.976;2023-05-10T16:12:23;2.33;;;1.30;;
76123;SDS011;65173;48.066;20.976;2023-05-10T16:15:25;0.82;;;0.77;;
76123;SDS011;65173;48.066;20.976;2023-05-10T16:18:28;1.77;;;0.70;;
76123;SDS011;65173;48.066;20.976;2023-05-10T16:21:31;1.15;;;0.90;;
76123;SDS011;65173;48.066;20.976;2023-05-10T16:24:34;1.08;;;0.88;;
76123;SDS011;65173;48.066;20.976;2023-05-10T16:27:38;1.30;;;1.20;;
76123;SDS011;65173;48.066;20.976;2023-05-10T16:30:40;1.25;;;0.82;;
76123;SDS011;65173;48.066;20.976;2023-05-10T16:33:43;1.10;;;0.90;;
76123;SDS011;65173;48.066;20.976;2023-05-10T16:36:46;1.60;;;0.80;;
76123;SDS011;65173;48.066;20.976;2023-05-10T16:39:48;1.00;;;0.90;;
76123;SDS011;65173;48.066;20.976;2023-05-10T16:42:51;1.25;;;1.00;;
76123;SDS011;65173;48.066;20.976;2023-05-10T16:45:53;2.47;;;0.90;;
76123;SDS011;65173;48.066;20.976;2023-05-10T16:48:56;1.90;;;1.27;;
76123;SDS011;65173;48.066;20.976;2023-05-10T16:52:00;2.00;;;1.60;;
76123;SDS011;65173;48.066;20.976;2023-05-10T16:55:04;2.15;;;1.20;;
76123;SDS011;65173;48.066;20.976;2023-05-10T16:58:07;1.30;;;1.10;;
76123;SDS011;65173;48.066;20.976;2023-05-10T17:01:10;1.10;;;0.98;;
76123;SDS011;65173;48.066;20.976;2023-05-10T17:04:14;1.65;;;1.17;;
76123;SDS011;65173;48.066;20.976;2023-05-10T17:07:17;2.28;;;1.50;;
76123;SDS011;65173;48.066;20.976;2023-05-10T17:10:20;1.30;;;1.07;;
76123;SDS011;65173;48.066;20.976;2023-05-10T17:13:23;2.50;;;1.42;;
76123;SDS011;65173;48.066;20.976;2023-05-10T17:16:26;5.63;;;1.83;;
76123;SDS011;65173;48.066;20.976;2023-05-10T17:19:29;2.53;;;1.93;;
76123;SDS011;65173;48.066;20.976;2023-05-10T17:22:31;3.05;;;2.40;;
76123;SDS011;65173;48.066;20.976;2023-05-10T17:25:34;3.13;;;2.63;;
76123;SDS011;65173;48.066;20.976;2023-05-10T17:28:37;4.43;;;2.17;;
76123;SDS011;65173;48.066;20.976;2023-05-10T17:31:40;2.08;;;1.88;;
76123;SDS011;65173;48.066;20.976;2023-05-10T17:34:43;3.30;;;1.55;;
76123;SDS011;65173;48.066;20.976;2023-05-10T17:37:45;3.65;;;1.42;;
76123;SDS011;65173;48.066;20.976;2023-05-10T17:40:48;1.40;;;1.13;;
76123;SDS011;65173;48.066;20.976;2023-05-10T17:43:52;2.63;;;1.27;;
76123;SDS011;65173;48.066;20.976;2023-05-10T17:46:55;1.13;;;0.60;;
76123;SDS011;65173;48.066;20.976;2023-05-10T17:49:58;1.73;;;1.40;;
76123;SDS011;65173;48.066;20.976;2023-05-10T17:53:00;1.17;;;0.63;;
76123;SDS011;65173;48.066;20.976;2023-05-10T17:56:04;1.13;;;0.93;;
76123;SDS011;65173;48.066;20.976;2023-05-10T17:59:07;0.70;;;0.50;;
76123;SDS011;65173;48.066;20.976;2023-05-10T18:02:09;0.60;;;0.50;;
76123;SDS011;65173;48.066;20.976;2023-05-10T18:05:12;1.15;;;0.47;;
76123;SDS011;65173;48.066;20.976;2023-05-10T18:08:15;0.40;;;0.40;;
76123;SDS011;65173;48.066;20.976;2023-05-10T18:11:23;0.40;;;0.40;;
76123;SDS011;65173;48.066;20.976;2023-05-10T18:14:26;0.80;;;0.80;;
76123;SDS011;65173;48.066;20.976;2023-05-10T18:17:42;0.88;;;0.80;;
76123;SDS011;65173;48.066;20.976;2023-05-10T18:20:44;1.10;;;0.70;;
76123;SDS011;65173;48.066;20.976;2023-05-10T18:23:47;1.45;;;0.68;;
76123;SDS011;65173;48.066;20.976;2023-05-10T18:26:50;0.82;;;0.60;;
76123;SDS011;65173;48.066;20.976;2023-05-10T18:29:53;0.95;;;0.65;;
76123;SDS011;65173;48.066;20.976;2023-05-10T18:32:56;3.92;;;1.08;;
76123;SDS011;65173;48.066;20.976;2023-05-10T18:35:59;1.40;;;0.80;;
76123;SDS011;65173;48.066;20.976;2023-05-10T18:39:03;1.58;;;0.70;;